Time;durP1;ratioP1;P1;durP2;ratioP2;P2;SDS_P1;SDS_P2;PMS_P1;PMS_P2;Temp;Humidity;BMP_temperature;BMP_pressure;BME280_temperature;BME280_humidity;BME280_pressure;Samples;Min_cycle;Max_cycle;Signal;HPM_P1;HPM_P2
2021/01/10 00:00:38;;;;;;;16.33;6.80;;;2.30;99.90;;;;;;5080032;28;20927;-69
2021/01/10 00:03:04;;;;;;;12.20;6.30;;;2.30;99.90;;;;;;5079958;28;20289;-69
2021/01/10 00:05:34;;;;;;;10.60;5.93;;;2.30;99.90;;;;;;5097020;28;20214;-70
2021/01/10 00:08:00;;;;;;;11.70;5.23;;;2.30;99.90;;;;;;5079419;28;20469;-70
2021/01/10 00:10:29;;;;;;;13.67;6.00;;;2.30;99.90;;;;;;5079386;28;20509;-69
2021/01/10 00:13:02;;;;;;;11.90;6.77;;;2.30;99.90;;;;;;5077864;28;20485;-70
2021/01/10 00:15:29;;;;;;;14.50;6.07;;;2.30;99.90;;;;;;5080391;28;20451;-70
2021/01/10 00:17:55;;;;;;;12.60;5.97;;;2.30;99.90;;;;;;5081496;28;20550;-71
2021/01/10 00:20:21;;;;;;;13.50;5.87;;;2.30;99.90;;;;;;5107699;27;20482;-70
2021/01/10 00:22:54;;;;;;;10.30;5.40;;;2.30;99.90;;;;;;5094643;28;20481;-70
2021/01/10 00:25:20;;;;;;;8.00;3.40;;;2.30;99.90;;;;;;5103900;28;20479;-69
2021/01/10 00:27:46;;;;;;;7.50;4.73;;;2.30;99.90;;;;;;5077457;28;20459;-68
2021/01/10 00:30:16;;;;;;;7.83;4.40;;;2.30;99.90;;;;;;5079695;27;20455;-69
2021/01/10 00:32:53;;;;;;;8.63;4.60;;;2.30;99.90;;;;;;5077266;28;20532;-68
2021/01/10 00:35:21;;;;;;;12.00;5.10;;;2.20;99.90;;;;;;5095517;27;20462;-71
2021/01/10 00:37:54;;;;;;;9.47;5.10;;;2.30;99.90;;;;;;5120804;27;20988;-69
2021/01/10 00:40:25;;;;;;;10.80;5.23;;;2.30;99.90;;;;;;5072721;28;20468;-70
2021/01/10 00:42:51;;;;;;;6.30;4.33;;;2.30;99.90;;;;;;5075932;28;20458;-68
2021/01/10 00:45:18;;;;;;;10.30;5.20;;;2.30;99.90;;;;;;5090958;28;20445;-70
2021/01/10 00:47:47;;;;;;;7.63;4.90;;;2.30;99.90;;;;;;5107640;28;20529;-70
2021/01/10 00:50:19;;;;;;;4.77;3.80;;;2.30;99.90;;;;;;5072535;28;20448;-70
2021/01/10 00:52:45;;;;;;;8.13;4.83;;;2.20;99.90;;;;;;5071764;27;20499;-71
2021/01/10 00:55:11;;;;;;;6.30;3.53;;;2.20;99.90;;;;;;5070324;28;20212;-70
2021/01/10 00:57:38;;;;;;;8.07;4.20;;;2.20;99.90;;;;;;5098473;28;20464;-71
2021/01/10 01:00:08;;;;;;;6.40;3.60;;;2.20;99.90;;;;;;5049050;28;20434;-69
2021/01/10 01:02:41;;;;;;;6.17;4.17;;;2.20;99.90;;;;;;5098585;28;20467;-69
2021/01/10 01:05:08;;;;;;;9.30;5.10;;;2.10;99.90;;;;;;5082086;28;20433;-67
2021/01/10 01:07:34;;;;;;;7.30;4.73;;;2.20;99.90;;;;;;5080222;28;20218;-69
2021/01/10 01:10:00;;;;;;;8.33;4.20;;;2.20;99.90;;;;;;5061971;28;20449;-69
2021/01/10 01:12:26;;;;;;;8.37;4.87;;;2.20;99.90;;;;;;5062320;28;20536;-69
2021/01/10 01:14:53;;;;;;;5.50;3.90;;;2.10;99.90;;;;;;5079011;28;20275;-69
2021/01/10 01:17:19;;;;;;;7.63;3.30;;;2.00;99.90;;;;;;5114384;28;20463;-68
2021/01/10 01:19:45;;;;;;;10.00;6.10;;;2.00;99.90;;;;;;5082499;28;20479;-70
2021/01/10 01:22:10;;;;;;;7.13;5.80;;;1.90;99.90;;;;;;5082478;28;20673;-69
2021/01/10 01:24:36;;;;;;;10.20;5.00;;;1.90;99.90;;;;;;5082422;28;20248;-69
2021/01/10 01:27:02;;;;;;;8.90;5.23;;;1.90;99.90;;;;;;5065582;28;20258;-67
2021/01/10 01:29:27;;;;;;;10.73;5.60;;;2.00;99.90;;;;;;5091470;28;20254;-68
2021/01/10 01:31:59;;;;;;;6.03;4.90;;;1.90;99.90;;;;;;5080663;28;20230;-70
2021/01/10 01:34:25;;;;;;;7.00;3.97;;;1.90;99.90;;;;;;5081227;28;20595;-70
2021/01/10 01:36:50;;;;;;;11.80;5.23;;;1.90;99.90;;;;;;5097741;28;20458;-67
2021/01/10 01:39:16;;;;;;;11.13;4.70;;;1.80;99.90;;;;;;5089361;27;20235;-67
2021/01/10 01:41:41;;;;;;;8.87;5.10;;;1.90;99.90;;;;;;5059947;28;20246;-70
2021/01/10 01:44:07;;;;;;;11.67;6.27;;;1.90;99.90;;;;;;5072064;28;20241;-69
2021/01/10 01:46:34;;;;;;;7.10;5.33;;;1.90;99.90;;;;;;5082048;28;20226;-70
2021/01/10 01:49:06;;;;;;;12.73;6.80;;;2.00;99.90;;;;;;5120746;27;20212;-70
2021/01/10 01:51:37;;;;;;;10.93;5.50;;;2.00;99.90;;;;;;5102238;28;20466;-70
2021/01/10 01:54:06;;;;;;;10.23;6.00;;;2.00;99.90;;;;;;5076085;28;20498;-68
2021/01/10 01:56:32;;;;;;;8.27;5.53;;;1.80;99.90;;;;;;5079714;28;20468;-69
2021/01/10 01:58:58;;;;;;;10.93;5.10;;;1.90;99.90;;;;;;5075468;28;20459;-69
2021/01/10 02:01:25;;;;;;;8.73;4.70;;;1.90;99.90;;;;;;5093457;28;20452;-69
2021/01/10 02:03:56;;;;;;;8.50;5.60;;;1.90;99.90;;;;;;5084956;28;20215;-68
2021/01/10 02:06:25;;;;;;;8.73;5.53;;;2.00;99.90;;;;;;5075006;28;20452;-69
2021/01/10 02:08:59;;;;;;;7.63;5.03;;;2.00;99.90;;;;;;5094284;27;20480;-70
2021/01/10 02:11:26;;;;;;;6.40;4.60;;;1.90;99.90;;;;;;5073929;28;20481;-69
2021/01/10 02:13:53;;;;;;;7.57;5.00;;;1.90;99.90;;;;;;5077237;28;20506;-69
2021/01/10 02:16:19;;;;;;;8.83;5.00;;;1.90;99.90;;;;;;5083675;27;20463;-67
2021/01/10 02:18:45;;;;;;;7.93;4.50;;;1.90;99.90;;;;;;5083467;28;21109;-70
2021/01/10 02:21:12;;;;;;;8.50;4.67;;;1.80;99.90;;;;;;5090384;28;20457;-69
2021/01/10 02:23:40;;;;;;;9.20;4.47;;;1.90;99.90;;;;;;5076108;28;20448;-69
2021/01/10 02:26:06;;;;;;;11.67;5.93;;;1.90;99.90;;;;;;5054660;28;20472;-69
2021/01/10 02:28:33;;;;;;;6.23;4.00;;;1.90;99.90;;;;;;5111489;28;20467;-69
2021/01/10 02:31:00;;;;;;;8.10;5.10;;;1.90;99.90;;;;;;5076739;28;20468;-69
2021/01/10 02:33:30;;;;;;;7.63;4.97;;;1.90;99.90;;;;;;5095155;28;20447;-69
2021/01/10 02:35:57;;;;;;;9.07;4.80;;;1.90;99.90;;;;;;5077302;28;20548;-68
2021/01/10 02:38:33;;;;;;;11.43;5.73;;;1.90;99.90;;;;;;5074340;28;20499;-69
2021/01/10 02:41:25;;;;;;;7.77;5.10;;;1.90;99.90;;;;;;5069915;28;20457;-69
2021/01/10 02:44:23;;;;;;;10.23;6.00;;;1.80;99.90;;;;;;5092889;28;20463;-66
2021/01/10 02:46:51;;;;;;;7.20;4.40;;;1.80;99.90;;;;;;5062880;28;20445;-69
2021/01/10 02:49:18;;;;;;;7.60;4.77;;;1.80;99.90;;;;;;5077291;28;20439;-69
2021/01/10 02:51:44;;;;;;;9.03;4.60;;;1.80;99.90;;;;;;5082260;28;20444;-69
2021/01/10 02:54:14;;;;;;;6.80;4.53;;;1.80;99.90;;;;;;5077889;28;20443;-70
2021/01/10 02:56:50;;;;;;;8.93;4.87;;;1.80;99.90;;;;;;5078156;28;20465;-69
2021/01/10 02:59:19;;;;;;;6.23;3.93;;;1.80;99.90;;;;;;5097206;28;20592;-65
2021/01/10 03:01:46;;;;;;;7.10;5.13;;;1.60;99.90;;;;;;5082849;28;20453;-69
2021/01/10 03:04:15;;;;;;;5.97;4.40;;;1.50;99.90;;;;;;5080974;28;21033;-70
2021/01/10 03:06:43;;;;;;;6.03;4.60;;;1.60;99.90;;;;;;5083974;28;20452;-68
2021/01/10 03:09:11;;;;;;;6.10;4.00;;;1.60;99.90;;;;;;5077678;28;20450;-69
2021/01/10 03:11:39;;;;;;;6.90;4.20;;;1.60;99.90;;;;;;5089290;28;20531;-70
2021/01/10 03:14:04;;;;;;;8.30;4.70;;;1.70;99.90;;;;;;5079795;28;21898;-68
2021/01/10 03:16:30;;;;;;;6.07;3.90;;;1.60;99.90;;;;;;5066638;28;20477;-69
2021/01/10 03:18:56;;;;;;;7.00;4.53;;;1.60;99.90;;;;;;5060934;28;20255;-69
2021/01/10 03:21:22;;;;;;;11.23;4.43;;;1.60;99.90;;;;;;5075162;28;20453;-66
2021/01/10 03:23:48;;;;;;;6.90;3.87;;;1.60;99.90;;;;;;5103437;28;20242;-68
2021/01/10 03:26:13;;;;;;;6.17;3.60;;;1.60;99.90;;;;;;5058114;28;20226;-69
2021/01/10 03:28:39;;;;;;;8.73;4.70;;;1.60;99.90;;;;;;5075546;28;20219;-69
2021/01/10 03:31:04;;;;;;;4.83;4.23;;;1.60;99.90;;;;;;5081150;28;20395;-68
2021/01/10 03:33:30;;;;;;;6.47;4.27;;;1.60;99.90;;;;;;5080341;28;20217;-69
2021/01/10 03:35:56;;;;;;;7.23;4.60;;;1.60;99.90;;;;;;5079605;28;20260;-69
2021/01/10 03:38:21;;;;;;;7.37;3.67;;;1.60;99.90;;;;;;5064337;28;20297;-70
2021/01/10 03:40:47;;;;;;;6.60;4.50;;;1.60;99.90;;;;;;5056866;28;20223;-69
2021/01/10 03:43:13;;;;;;;8.57;4.80;;;1.60;99.90;;;;;;5073996;28;20218;-68
2021/01/10 03:45:38;;;;;;;6.97;4.47;;;1.60;99.90;;;;;;5066196;28;20641;-68
2021/01/10 03:48:04;;;;;;;6.37;4.07;;;1.60;99.90;;;;;;5053395;28;20301;-69
2021/01/10 03:50:30;;;;;;;13.10;4.30;;;1.60;99.90;;;;;;5065096;28;20210;-70
2021/01/10 03:52:56;;;;;;;5.03;4.00;;;1.60;99.90;;;;;;5079594;28;20212;-68
2021/01/10 03:55:21;;;;;;;10.37;6.20;;;1.60;99.90;;;;;;5079244;28;20459;-68
2021/01/10 03:57:47;;;;;;;6.23;5.00;;;1.60;99.90;;;;;;5081974;28;20231;-69
2021/01/10 04:00:13;;;;;;;7.03;4.77;;;1.60;99.90;;;;;;5074425;28;20227;-69
2021/01/10 04:02:39;;;;;;;6.20;4.10;;;1.50;99.90;;;;;;5076922;28;20215;-70
2021/01/10 04:05:05;;;;;;;8.47;4.50;;;1.50;99.90;;;;;;5064979;28;20966;-69
2021/01/10 04:07:31;;;;;;;7.10;4.90;;;1.50;99.90;;;;;;5092793;28;20219;-67
2021/01/10 04:09:58;;;;;;;9.17;4.93;;;1.50;99.90;;;;;;5086019;27;20513;-70
2021/01/10 04:12:23;;;;;;;9.33;4.90;;;1.50;99.90;;;;;;5079788;28;20268;-69
2021/01/10 04:14:55;;;;;;;8.90;5.57;;;1.50;99.90;;;;;;5089507;28;20452;-70
2021/01/10 04:17:22;;;;;;;6.70;4.73;;;1.50;99.90;;;;;;5076731;28;20971;-69
2021/01/10 04:19:47;;;;;;;8.20;5.07;;;1.40;99.90;;;;;;5079087;28;20457;-70
2021/01/10 04:22:13;;;;;;;10.60;4.73;;;1.40;99.90;;;;;;5080421;28;20472;-69
2021/01/10 04:24:39;;;;;;;6.40;4.30;;;1.30;99.90;;;;;;5090891;28;20215;-69
2021/01/10 04:27:04;;;;;;;13.40;6.27;;;1.30;99.90;;;;;;5067072;28;20660;-69
2021/01/10 04:29:30;;;;;;;10.33;5.30;;;1.30;99.90;;;;;;5079705;28;20265;-67
2021/01/10 04:31:55;;;;;;;7.43;4.57;;;1.30;99.90;;;;;;5082307;28;20736;-74
2021/01/10 04:34:21;;;;;;;9.17;5.43;;;1.30;99.90;;;;;;5075869;28;20687;-68
2021/01/10 04:36:47;;;;;;;8.17;5.30;;;1.30;99.90;;;;;;5084935;28;20593;-67
2021/01/10 04:39:13;;;;;;;7.40;4.90;;;1.20;99.90;;;;;;5085390;28;20272;-68
2021/01/10 04:41:40;;;;;;;8.57;4.43;;;1.30;99.90;;;;;;5055293;28;20210;-68
2021/01/10 04:44:06;;;;;;;6.33;4.87;;;1.20;99.90;;;;;;5082508;28;20664;-67
2021/01/10 04:46:33;;;;;;;15.50;5.03;;;1.20;99.90;;;;;;5078050;27;20533;-68
2021/01/10 04:48:59;;;;;;;7.53;5.17;;;1.20;99.90;;;;;;5073448;28;20448;-70
2021/01/10 04:51:26;;;;;;;7.97;5.53;;;1.20;99.90;;;;;;5084278;28;20452;-67
2021/01/10 04:53:55;;;;;;;6.53;3.90;;;1.20;99.90;;;;;;5078033;28;20440;-69
2021/01/10 04:56:27;;;;;;;7.57;4.43;;;1.20;99.90;;;;;;5084075;28;20482;-69
2021/01/10 04:58:55;;;;;;;11.00;5.70;;;1.20;99.90;;;;;;5084807;28;20453;-68
2021/01/10 05:01:25;;;;;;;13.77;4.47;;;1.20;99.90;;;;;;5074149;28;20459;-67
2021/01/10 05:03:53;;;;;;;7.70;5.27;;;1.20;99.90;;;;;;5110956;27;20440;-67
2021/01/10 05:06:20;;;;;;;9.17;4.73;;;1.20;99.90;;;;;;5073938;28;20448;-67
2021/01/10 05:08:46;;;;;;;8.00;4.90;;;1.20;99.90;;;;;;5095729;28;20452;-67
2021/01/10 05:11:13;;;;;;;8.40;5.53;;;1.20;99.90;;;;;;5094177;28;20448;-68
2021/01/10 05:13:38;;;;;;;8.67;4.90;;;1.20;99.90;;;;;;5074505;28;20448;-68
2021/01/10 05:16:06;;;;;;;8.57;4.20;;;1.20;99.90;;;;;;5076960;28;20983;-67
2021/01/10 05:18:32;;;;;;;8.37;4.87;;;1.20;99.90;;;;;;5094223;28;20219;-67
2021/01/10 05:20:57;;;;;;;6.77;4.80;;;1.20;99.90;;;;;;5059959;28;20456;-67
2021/01/10 05:23:27;;;;;;;8.93;5.10;;;1.20;99.90;;;;;;5076711;28;20539;-67
2021/01/10 05:26:05;;;;;;;7.80;5.13;;;1.30;99.90;;;;;;5076749;28;20214;-68
2021/01/10 05:28:33;;;;;;;9.10;5.70;;;1.30;99.90;;;;;;5112364;28;20986;-68
2021/01/10 05:31:00;;;;;;;10.03;6.30;;;1.30;99.90;;;;;;5076359;28;20465;-68
2021/01/10 05:33:26;;;;;;;13.37;6.90;;;1.20;99.90;;;;;;5076136;28;20473;-68
2021/01/10 05:35:56;;;;;;;13.87;5.93;;;1.30;99.90;;;;;;5076345;28;20467;-67
2021/01/10 05:38:27;;;;;;;17.13;8.27;;;1.30;99.90;;;;;;5060326;28;20285;-68
2021/01/10 05:40:54;;;;;;;22.13;9.67;;;1.30;99.90;;;;;;5092606;28;20440;-68
2021/01/10 05:43:21;;;;;;;31.07;12.43;;;1.20;99.90;;;;;;5114986;27;20443;-67
2021/01/10 05:45:46;;;;;;;27.67;10.40;;;1.20;99.90;;;;;;5057118;28;20449;-67
2021/01/10 05:48:13;;;;;;;23.40;10.07;;;1.20;99.90;;;;;;5074144;28;20443;-67
2021/01/10 05:50:51;;;;;;;25.47;10.90;;;1.20;99.90;;;;;;5055810;28;20219;-68
2021/01/10 05:53:24;;;;;;;23.40;10.23;;;1.20;99.90;;;;;;5108098;28;20448;-68
2021/01/10 05:56:00;;;;;;;21.23;10.13;;;1.20;99.90;;;;;;5090324;28;20476;-68
2021/01/10 05:58:30;;;;;;;17.80;8.30;;;1.20;99.90;;;;;;5079340;28;20544;-68
2021/01/10 06:01:00;;;;;;;20.90;9.53;;;1.20;99.90;;;;;;5087933;28;20531;-68
2021/01/10 06:03:31;;;;;;;16.07;7.50;;;1.20;99.90;;;;;;5101458;28;20449;-69
2021/01/10 06:06:01;;;;;;;19.63;8.70;;;1.20;99.90;;;;;;5074770;28;20991;-67
2021/01/10 06:08:35;;;;;;;16.90;7.17;;;1.20;99.90;;;;;;5071613;28;20440;-67
2021/01/10 06:11:26;;;;;;;14.17;8.27;;;1.20;99.90;;;;;;5075086;28;20661;-67
2021/01/10 06:14:00;;;;;;;7.13;5.50;;;1.20;99.90;;;;;;5075807;28;20440;-67
2021/01/10 06:16:28;;;;;;;10.10;4.90;;;1.20;99.90;;;;;;5072036;28;20468;-68
2021/01/10 06:18:59;;;;;;;7.37;4.17;;;1.20;99.90;;;;;;5087898;28;20452;-68
2021/01/10 06:21:27;;;;;;;10.47;6.50;;;1.20;99.90;;;;;;5075729;28;20459;-68
2021/01/10 06:23:58;;;;;;;11.10;7.10;;;1.20;99.90;;;;;;5087886;28;20456;-67
2021/01/10 06:26:26;;;;;;;12.40;6.83;;;1.00;99.90;;;;;;5087715;27;20452;-68
2021/01/10 06:28:57;;;;;;;10.03;6.80;;;1.00;99.90;;;;;;5086375;28;20457;-67
2021/01/10 06:31:27;;;;;;;17.57;7.77;;;1.00;99.90;;;;;;5078188;28;20459;-67
2021/01/10 06:33:56;;;;;;;14.90;6.40;;;1.10;99.90;;;;;;5084584;28;20445;-68
2021/01/10 06:36:23;;;;;;;11.40;6.90;;;1.10;99.90;;;;;;5080384;28;20475;-67
2021/01/10 06:38:58;;;;;;;8.60;5.90;;;1.10;99.90;;;;;;5062242;28;20893;-67
2021/01/10 06:41:33;;;;;;;17.53;7.27;;;1.10;99.90;;;;;;5080481;28;20538;-68
2021/01/10 06:43:59;;;;;;;8.67;5.10;;;1.00;99.90;;;;;;5083344;28;20440;-68
2021/01/10 06:46:25;;;;;;;7.87;5.33;;;1.00;99.90;;;;;;5103789;28;20521;-68
2021/01/10 06:48:52;;;;;;;6.80;4.90;;;1.00;99.90;;;;;;5093069;28;20483;-69
2021/01/10 06:51:20;;;;;;;7.03;4.67;;;1.00;99.90;;;;;;5072961;28;20475;-68
2021/01/10 06:53:46;;;;;;;7.47;5.27;;;1.00;99.90;;;;;;5046599;28;20456;-67
2021/01/10 06:56:12;;;;;;;8.90;5.50;;;1.00;99.90;;;;;;5055619;28;20453;-67
2021/01/10 06:58:38;;;;;;;8.60;5.93;;;1.10;99.90;;;;;;5090701;28;20220;-67
2021/01/10 07:01:04;;;;;;;7.27;4.63;;;1.00;99.90;;;;;;5070192;28;20443;-69
2021/01/10 07:03:30;;;;;;;6.40;4.53;;;1.00;99.90;;;;;;5059448;28;20215;-68
2021/01/10 07:06:10;;;;;;;6.30;4.67;;;1.00;99.90;;;;;;5071700;28;20471;-69
2021/01/10 07:08:35;;;;;;;12.53;5.50;;;1.00;99.90;;;;;;5069060;28;20228;-68
2021/01/10 07:11:23;;;;;;;11.73;6.43;;;1.00;99.90;;;;;;5074318;28;20453;-67
2021/01/10 07:13:50;;;;;;;9.20;5.60;;;1.00;99.90;;;;;;5091960;28;20238;-68
2021/01/10 07:16:23;;;;;;;11.07;5.90;;;1.00;99.90;;;;;;5075007;28;20563;-68
2021/01/10 07:18:52;;;;;;;10.43;6.77;;;1.00;99.90;;;;;;5091913;28;20451;-68
2021/01/10 07:21:31;;;;;;;14.67;7.70;;;1.00;99.90;;;;;;5056727;28;20443;-69
2021/01/10 07:24:20;;;;;;;13.13;6.03;;;1.00;99.90;;;;;;5058696;28;20961;-68
2021/01/10 07:26:48;;;;;;;11.13;5.70;;;1.00;99.90;;;;;;5072268;28;20471;-67
2021/01/10 07:29:29;;;;;;;11.00;6.30;;;1.00;99.90;;;;;;5087875;28;20484;-67
2021/01/10 07:32:05;;;;;;;18.50;8.20;;;1.00;99.90;;;;;;5095504;28;20452;-68
2021/01/10 07:34:33;;;;;;;14.47;7.10;;;1.00;99.90;;;;;;5082036;27;20454;-68
2021/01/10 07:37:01;;;;;;;12.33;7.43;;;1.00;99.90;;;;;;5090660;28;20564;-67
2021/01/10 07:39:29;;;;;;;10.13;7.73;;;1.00;99.90;;;;;;5078479;28;20448;-72
2021/01/10 07:42:12;;;;;;;14.63;7.37;;;1.00;99.90;;;;;;5081457;28;20449;-71
2021/01/10 07:44:51;;;;;;;16.10;7.70;;;1.00;99.90;;;;;;5094176;28;20453;-67
2021/01/10 07:47:38;;;;;;;21.63;9.63;;;1.00;99.90;;;;;;5094631;27;20453;-69
2021/01/10 07:50:10;;;;;;;16.87;8.90;;;1.00;99.90;;;;;;5093303;27;20448;-68
2021/01/10 07:52:41;;;;;;;13.20;8.87;;;1.00;99.90;;;;;;5120849;27;20456;-67
2021/01/10 07:55:28;;;;;;;19.77;9.23;;;1.00;99.90;;;;;;5068993;28;20448;-68
2021/01/10 07:58:00;;;;;;;18.40;10.50;;;1.00;99.90;;;;;;5069575;28;20468;-68
2021/01/10 08:00:31;;;;;;;18.17;11.87;;;1.00;99.90;;;;;;5078283;28;21035;-68
2021/01/10 08:03:08;;;;;;;25.40;11.30;;;1.00;99.90;;;;;;5071549;28;20843;-67
2021/01/10 08:05:38;;;;;;;22.20;12.97;;;1.00;99.90;;;;;;5095066;28;20475;-69
2021/01/10 08:08:13;;;;;;;17.13;10.10;;;1.00;99.90;;;;;;5078192;28;20964;-68
2021/01/10 08:10:55;;;;;;;13.03;9.03;;;1.00;99.90;;;;;;5078098;28;20447;-68
2021/01/10 08:13:30;;;;;;;17.90;9.10;;;1.00;99.90;;;;;;5093520;28;20480;-67
2021/01/10 08:16:04;;;;;;;18.60;10.17;;;1.00;99.90;;;;;;5084737;28;20465;-67
2021/01/10 08:18:34;;;;;;;13.57;8.40;;;1.00;99.90;;;;;;5089339;27;20451;-69
2021/01/10 08:21:17;;;;;;;21.47;9.77;;;1.00;99.90;;;;;;5094114;28;20527;-67
2021/01/10 08:23:53;;;;;;;12.00;8.17;;;1.00;99.90;;;;;;5086559;28;20778;-68
2021/01/10 08:26:19;;;;;;;15.27;8.23;;;1.00;99.90;;;;;;5060291;28;20514;-68
2021/01/10 08:28:50;;;;;;;14.50;9.20;;;1.10;99.90;;;;;;5080334;28;20449;-68
2021/01/10 08:31:19;;;;;;;12.50;8.40;;;1.10;99.90;;;;;;5091988;28;21052;-68
2021/01/10 08:33:45;;;;;;;12.83;8.93;;;1.10;99.90;;;;;;5047371;28;20476;-68
2021/01/10 08:36:21;;;;;;;14.43;9.33;;;1.10;99.90;;;;;;5052476;28;20445;-70
2021/01/10 08:38:52;;;;;;;15.50;7.60;;;1.10;99.90;;;;;;5059711;28;20459;-68
2021/01/10 08:41:37;;;;;;;12.87;7.47;;;1.10;99.90;;;;;;5072710;28;20448;-67
2021/01/10 08:44:08;;;;;;;11.57;7.20;;;1.10;99.90;;;;;;5094413;27;20448;-68
2021/01/10 08:46:37;;;;;;;13.43;8.27;;;1.10;99.90;;;;;;5094610;28;20463;-67
2021/01/10 08:49:03;;;;;;;12.90;6.10;;;1.10;99.90;;;;;;5081422;27;20451;-68
2021/01/10 08:51:32;;;;;;;11.70;7.83;;;1.10;99.90;;;;;;5061148;27;20478;-70
2021/01/10 08:54:39;;;;;;;13.60;6.90;;;1.10;99.90;;;;;;5095535;28;20309;-67
2021/01/10 08:57:05;;;;;;;8.33;5.10;;;1.20;99.90;;;;;;5085966;28;20529;-68
2021/01/10 08:59:41;;;;;;;12.03;7.27;;;1.20;99.90;;;;;;5058713;28;20449;-68
2021/01/10 09:02:08;;;;;;;21.17;7.60;;;1.20;99.90;;;;;;5075665;28;20427;-68
2021/01/10 09:04:42;;;;;;;19.30;10.37;;;1.20;99.90;;;;;;5069735;28;20472;-67
2021/01/10 09:07:11;;;;;;;22.80;12.90;;;1.20;99.90;;;;;;5077141;28;20444;-68
2021/01/10 09:09:51;;;;;;;19.70;11.07;;;1.30;99.90;;;;;;5079371;27;20455;-67
2021/01/10 09:12:39;;;;;;;30.03;12.17;;;1.30;99.90;;;;;;5082819;28;20445;-67
2021/01/10 09:15:09;;;;;;;25.67;13.93;;;1.30;99.90;;;;;;5051123;28;20463;-67
2021/01/10 09:18:06;;;;;;;17.53;10.07;;;1.30;99.90;;;;;;5073849;28;20844;-68
2021/01/10 09:20:41;;;;;;;17.97;9.27;;;1.40;99.90;;;;;;5088525;28;20448;-68
2021/01/10 09:23:08;;;;;;;17.63;9.17;;;1.40;99.90;;;;;;5092228;27;20447;-68
2021/01/10 09:25:34;;;;;;;14.67;8.70;;;1.40;99.90;;;;;;5087929;27;20451;-70
2021/01/10 09:28:09;;;;;;;15.33;7.90;;;1.50;99.90;;;;;;5080001;27;20543;-68
2021/01/10 09:31:04;;;;;;;14.33;7.63;;;1.50;99.90;;;;;;5089543;28;20456;-68
2021/01/10 09:33:31;;;;;;;13.63;7.03;;;1.50;99.90;;;;;;5079088;28;20472;-68
2021/01/10 09:36:03;;;;;;;9.57;6.60;;;1.50;99.90;;;;;;5053237;28;20468;-68
2021/01/10 09:38:31;;;;;;;11.27;6.67;;;1.50;99.90;;;;;;5072960;28;20527;-68
2021/01/10 09:41:03;;;;;;;10.57;5.73;;;1.60;99.90;;;;;;5069994;27;20450;-69
2021/01/10 09:43:41;;;;;;;8.57;5.80;;;1.60;99.90;;;;;;5088913;28;20428;-68
2021/01/10 09:46:25;;;;;;;10.50;6.10;;;1.60;99.90;;;;;;5083900;28;20461;-67
2021/01/10 09:48:53;;;;;;;11.90;7.20;;;1.60;99.90;;;;;;5076447;27;20577;-67
2021/01/10 09:51:19;;;;;;;8.70;6.33;;;1.70;99.90;;;;;;5076808;28;20447;-67
2021/01/10 09:53:48;;;;;;;11.37;7.07;;;1.70;99.90;;;;;;5071788;28;20480;-69
2021/01/10 09:56:35;;;;;;;14.90;7.70;;;1.70;99.90;;;;;;5064114;27;20444;-67
2021/01/10 09:59:01;;;;;;;9.90;5.10;;;1.80;99.90;;;;;;5071179;28;20500;-67
2021/01/10 10:01:37;;;;;;;9.77;6.00;;;1.80;99.90;;;;;;5056944;28;20541;-69
2021/01/10 10:04:03;;;;;;;7.80;5.40;;;1.80;99.90;;;;;;5073547;27;20214;-70
2021/01/10 10:06:47;;;;;;;12.43;6.30;;;1.90;99.90;;;;;;5102059;27;20468;-70
2021/01/10 10:09:13;;;;;;;12.73;6.43;;;1.90;99.90;;;;;;5084890;28;20536;-71
2021/01/10 10:11:38;;;;;;;9.27;6.33;;;1.90;99.90;;;;;;5051672;28;20577;-71
2021/01/10 10:14:04;;;;;;;15.07;7.83;;;1.90;99.90;;;;;;5071677;28;20242;-72
2021/01/10 10:16:30;;;;;;;12.07;6.73;;;2.00;99.90;;;;;;5084360;28;20311;-73
2021/01/10 10:18:57;;;;;;;10.10;5.07;;;2.00;99.90;;;;;;5059300;28;20248;-71
2021/01/10 10:21:24;;;;;;;10.80;6.43;;;2.10;99.90;;;;;;5092701;28;20540;-71
2021/01/10 10:23:50;;;;;;;13.17;6.60;;;2.20;99.90;;;;;;5092502;28;20499;-71
2021/01/10 10:26:15;;;;;;;13.60;8.23;;;2.30;99.90;;;;;;5059357;28;20448;-71
2021/01/10 10:28:41;;;;;;;12.13;8.60;;;2.40;99.90;;;;;;5092408;28;20212;-71
2021/01/10 10:31:07;;;;;;;15.67;9.20;;;2.40;99.90;;;;;;5066626;28;20229;-71
2021/01/10 10:33:34;;;;;;;12.07;8.13;;;2.40;99.90;;;;;;5059057;28;20223;-70
2021/01/10 10:36:01;;;;;;;9.67;7.40;;;2.40;99.90;;;;;;5092346;28;20839;-70
2021/01/10 10:38:27;;;;;;;13.80;7.83;;;2.50;99.90;;;;;;5075189;28;20470;-72
2021/01/10 10:40:53;;;;;;;8.87;5.40;;;2.60;99.90;;;;;;5052212;28;20446;-72
2021/01/10 10:43:19;;;;;;;11.70;5.87;;;2.70;99.90;;;;;;5080813;28;20581;-72
2021/01/10 10:45:45;;;;;;;9.33;5.00;;;2.70;99.90;;;;;;5068980;28;20452;-70
2021/01/10 10:48:11;;;;;;;7.80;4.40;;;2.80;99.90;;;;;;5075005;28;20439;-72
2021/01/10 10:50:36;;;;;;;7.77;4.70;;;2.90;99.90;;;;;;5074666;28;20222;-69
2021/01/10 10:53:05;;;;;;;8.00;4.53;;;2.90;99.90;;;;;;5074993;28;20277;-69
2021/01/10 10:55:31;;;;;;;6.70;4.37;;;2.90;99.90;;;;;;5075795;28;20233;-69
2021/01/10 10:57:57;;;;;;;5.50;3.60;;;3.00;99.90;;;;;;5093753;28;20456;-69
2021/01/10 11:00:23;;;;;;;7.20;4.07;;;3.00;99.90;;;;;;5047434;28;20494;-69
2021/01/10 11:02:48;;;;;;;5.73;3.10;;;3.10;99.90;;;;;;5075775;28;20484;-69
2021/01/10 11:05:14;;;;;;;8.93;4.70;;;3.10;99.90;;;;;;5059685;28;20441;-69
2021/01/10 11:07:43;;;;;;;13.93;6.27;;;3.20;99.90;;;;;;5077492;28;20342;-69
2021/01/10 11:10:09;;;;;;;5.80;3.50;;;3.20;99.90;;;;;;5087986;28;20717;-70
2021/01/10 11:12:35;;;;;;;7.53;4.27;;;3.30;99.90;;;;;;5095455;28;20455;-69
2021/01/10 11:15:02;;;;;;;6.53;4.53;;;3.30;99.90;;;;;;5078616;28;20463;-69
2021/01/10 11:17:28;;;;;;;4.87;3.50;;;3.40;99.90;;;;;;5096213;28;20240;-71
2021/01/10 11:19:53;;;;;;;7.80;4.50;;;3.40;99.90;;;;;;5077605;28;20467;-69
2021/01/10 11:22:19;;;;;;;10.73;4.67;;;3.40;99.90;;;;;;5083574;28;20218;-69
2021/01/10 11:24:45;;;;;;;7.77;5.00;;;3.50;99.90;;;;;;5045493;28;20247;-70
2021/01/10 11:27:11;;;;;;;9.40;4.50;;;3.50;99.90;;;;;;5077270;28;20230;-71
2021/01/10 11:29:37;;;;;;;8.03;4.60;;;3.60;99.90;;;;;;5072493;28;20435;-71
2021/01/10 11:32:04;;;;;;;9.70;5.40;;;3.60;99.90;;;;;;5082597;27;20211;-71
2021/01/10 11:34:30;;;;;;;10.20;5.27;;;3.70;99.90;;;;;;5120071;27;20542;-69
2021/01/10 11:36:56;;;;;;;5.40;4.10;;;3.70;99.90;;;;;;5083798;28;20486;-70
2021/01/10 11:39:24;;;;;;;11.43;4.30;;;3.80;99.90;;;;;;5097961;27;20451;-69
2021/01/10 11:41:53;;;;;;;8.10;5.23;;;3.80;99.90;;;;;;5117190;27;20444;-70
2021/01/10 11:44:21;;;;;;;9.47;5.37;;;3.80;99.90;;;;;;5076118;27;20443;-71
2021/01/10 11:46:49;;;;;;;6.77;5.43;;;3.80;99.90;;;;;;5094128;27;20463;-70
2021/01/10 11:49:16;;;;;;;11.80;6.77;;;3.80;99.90;;;;;;5099696;27;20462;-69
2021/01/10 11:51:42;;;;;;;14.20;6.83;;;3.80;99.90;;;;;;5074947;28;20565;-72
2021/01/10 11:54:08;;;;;;;6.63;5.30;;;3.80;99.90;;;;;;5078042;27;20443;-70
2021/01/10 11:56:34;;;;;;;11.77;6.30;;;3.80;99.90;;;;;;5062129;28;20479;-70
2021/01/10 11:59:00;;;;;;;9.33;5.63;;;3.80;99.90;;;;;;5072334;27;20475;-70
2021/01/10 12:01:34;;;;;;;7.67;4.50;;;3.80;99.90;;;;;;5095576;28;20839;-69
2021/01/10 12:04:00;;;;;;;10.00;4.83;;;3.80;99.90;;;;;;5073697;28;20587;-70
2021/01/10 12:06:26;;;;;;;9.77;4.87;;;3.90;99.90;;;;;;5106737;27;20850;-69
2021/01/10 12:08:52;;;;;;;4.80;3.90;;;3.90;99.90;;;;;;5076918;28;20612;-69
2021/01/10 12:11:18;;;;;;;8.33;4.40;;;3.90;99.90;;;;;;5084679;27;20231;-70
2021/01/10 12:13:45;;;;;;;9.47;4.10;;;3.90;99.90;;;;;;5088654;27;20253;-69
2021/01/10 12:16:15;;;;;;;5.63;3.37;;;4.00;99.90;;;;;;5114144;27;20231;-70
2021/01/10 12:18:42;;;;;;;3.80;3.10;;;4.00;99.90;;;;;;5078462;28;20579;-69
2021/01/10 12:21:09;;;;;;;6.80;3.50;;;4.10;99.90;;;;;;5078710;27;20536;-72
2021/01/10 12:23:36;;;;;;;4.10;2.50;;;4.10;99.90;;;;;;5086645;27;20462;-69
2021/01/10 12:26:06;;;;;;;4.03;2.77;;;4.20;99.90;;;;;;5077330;28;20483;-70
2021/01/10 12:28:32;;;;;;;2.40;2.20;;;4.40;99.90;;;;;;5078572;28;20457;-73
2021/01/10 12:30:58;;;;;;;5.33;2.93;;;4.40;99.90;;;;;;5072017;28;20482;-71
2021/01/10 12:33:23;;;;;;;4.50;2.60;;;4.50;99.90;;;;;;5084531;27;20214;-72
2021/01/10 12:35:49;;;;;;;4.67;3.20;;;4.50;99.90;;;;;;5080215;27;20247;-72
2021/01/10 12:38:15;;;;;;;3.30;2.37;;;4.60;99.90;;;;;;5055847;28;20247;-71
2021/01/10 12:40:40;;;;;;;5.33;2.90;;;4.70;99.90;;;;;;5075879;28;20210;-73
2021/01/10 12:43:06;;;;;;;4.30;2.80;;;4.70;99.90;;;;;;5057143;28;20280;-71
2021/01/10 12:45:31;;;;;;;2.50;2.27;;;4.80;99.90;;;;;;5097550;28;20221;-73
2021/01/10 12:47:57;;;;;;;4.90;2.97;;;4.80;99.90;;;;;;5079043;28;20232;-73
2021/01/10 12:50:23;;;;;;;3.83;2.20;;;4.90;99.90;;;;;;5065759;28;20219;-73
2021/01/10 12:52:48;;;;;;;4.80;3.10;;;4.90;99.90;;;;;;5052268;28;20218;-73
2021/01/10 12:55:14;;;;;;;4.40;2.67;;;4.90;99.90;;;;;;5080520;28;20218;-73
2021/01/10 12:57:40;;;;;;;6.80;3.63;;;5.00;99.90;;;;;;5086327;27;20225;-72
2021/01/10 13:00:08;;;;;;;7.80;4.00;;;5.00;99.90;;;;;;5112361;28;20265;-73
2021/01/10 13:02:34;;;;;;;5.10;3.80;;;5.00;99.90;;;;;;5101674;28;20226;-71